3 juillet 2022

Temps Code Temps Temp. Vue Base cloud Vent METAR/SPECI
4:00 am
V
75 °F 6¼ mi+ - 350° 350° 10 kt METAR AYPY 021800Z 35010KT 9999 SCT050 24/23 Q1007
3:00 am
V
77 °F 6¼ mi+ - 350° 350° 10 kt METAR AYPY 021700Z 35010KT 9999 SCT050 25/23 Q1007
2:00 am
V
77 °F 6¼ mi+ 5.000 ft 340° 340° 10 kt METAR AYPY 021600Z 34010KT 9999 SHRA FEW030 BKN050 25/24 Q1007
1:00 am
V
77 °F 6¼ mi+ 5.000 ft 340° 340° 10 kt METAR AYPY 021500Z 34010KT 9999 SHRA BKN050 25/24 Q1007
12:00 am
V
79 °F 6¼ mi+ 10.000 ft Var Var 5 kt METAR AYPY 021400Z VRB05KT 9999 BKN100 26/24 Q1007

2 juillet 2022

Temps Code Temps Temp. Vue Base cloud Vent METAR/SPECI
11:00 pm
V
81 °F 6¼ mi+ 9.000 ft Var Var 4 kt METAR AYPY 021300Z VRB04KT 9999 BKN090 27/24 Q1007
10:00 pm
V
81 °F 6¼ mi+ - Var Var 3 kt METAR AYPY 021200Z VRB03KT 9999 SCT100 27/23 Q1007
9:00 pm
V
81 °F 6¼ mi+ - Var Var 4 kt METAR AYPY 021100Z VRB04KT 9999 SCT090 27/23 Q1007
8:00 pm
V
81 °F 6¼ mi+ 10.000 ft Var Var 4 kt METAR AYPY 021000Z VRB04KT 9999 SCT070 BKN100 27/23 Q1007
7:00 pm
V
82 °F 6¼ mi+ 13.000 ft 110° 110° 8 kt METAR AYPY 020900Z 11008KT 9999 SCT090 BKN130 28/25 Q1007=
6:00 pm
V
82 °F 6¼ mi+ - 160° 160° 10 kt METAR AYPY 020800Z 16010KT 9999 FUHZ FEW015 SCT090 28/25 Q1006
5:00 pm
V
84 °F 6¼ mi+ - 160° 160° 10 kt METAR AYPY 020700Z 16010KT 9999 FUHZ FEW015 SCT050 29/25 Q1006
4:00 pm
V
84 °F 6¼ mi+ - 150° 150° 5 - 15 kt METAR AYPY 020600Z 15005G15KT 9999 FUHZ FEW010 SCT050 29/25 Q1006=
3:00 pm
V
86 °F 6¼ mi+ - 140° 140° 5 - 15 kt METAR AYPY 020500Z 14005G15KT 9999 FUHZ FEW025 SCT050 30/24 Q1006
2:00 pm
V
84 °F 6¼ mi+ 4.000 ft 150° 150° 5 - 15 kt METAR AYPY 020400Z 15005G15KT 9999 FUHZ SCT025 BKN040 29/24 Q1007 RMK/ CB NW TO E
1:00 pm
V
90 °F 6¼ mi+ - 160° 160° 5 - 15 kt METAR AYPY 020300Z 16005G15KT 9999 FUHZ SCT025 SCT050 32/25 Q1007 RMK/ CB NW TO E
12:00 pm
V
90 °F 6¼ mi+ - 130° 130° 5 - 15 kt METAR AYPY 020200Z 13005G15KT 9999 FUHZ SCT025 SCT035 32/24 Q1008 RMK
11:00 am
V
88 °F 6¼ mi+ - 140° 140° 5 - 15 kt METAR AYPY 020100Z 14005G15KT 9999 HZ SCT035 31/21 Q1009
10:00 am
V
86 °F 6¼ mi+ - 350° 350° 5 kt METAR AYPY 020000Z 35005KT 9999 FUHZ FEW030 30/23 Q1009
9:00 am
V
84 °F 6¼ mi+ - 320° 320° 5 kt METAR AYPY 012300Z 32005KT 9999 FUHZ FEW050 29/24 Q1009
8:00 am
V
77 °F 6¼ mi+ - 310° 310° 5 kt METAR AYPY 012200Z 31005KT 9999 FUHZ FEW020 25/24 Q1009
7:00 am
V
73 °F 6¼ mi+ - Var Var 3 kt METAR AYPY 012100Z VRB03KT 9999 HZ FEW050 23/23 Q1008
6:00 am
V
75 °F 6¼ mi+ - Var Var 3 kt METAR AYPY 012000Z VRB03KT 9999 FEW050 SCT100 24/23 Q1008
5:00 am
V
75 °F 6¼ mi+ - Var Var 3 kt METAR AYPY 011900Z VRB03KT 9999 FEW050 SCT100 24/23 Q1008
3:00 am
V
75 °F 6¼ mi+ - Var Var 3 kt METAR AYPY 011700Z VRB03KT 9999 FEW050 SCT100 24/23 Q1008
2:00 am
V
77 °F 6¼ mi+ - Var Var 4 kt METAR AYPY 011600Z VRB04KT 9999 FEW050 SCT100 25/24 Q1009
1:00 am
V
77 °F 6¼ mi+ - Var Var 4 kt METAR AYPY 011500Z VRB04KT 9999 FEW050 SCT100 25/24 Q1005
12:00 am
V
75 °F 6¼ mi+ - Var Var 4 kt METAR AYPY 011400Z VRB04KT 9999 SCT100 24/24 Q1008

1 juillet 2022

Temps Code Temps Temp. Vue Base cloud Vent METAR/SPECI
11:00 pm
V
77 °F 6¼ mi+ - Var Var 4 kt METAR AYPY 011300Z VRB04KT 9999 SCT100 25/24 Q1009
10:00 pm
V
79 °F 6¼ mi+ - Var Var 3 kt METAR AYPY 011200Z VRB03KT 9999 SCT100 26/25 Q1009
9:00 pm
V
79 °F 6¼ mi+ - Var Var 3 kt METAR AYPY 011100Z VRB03KT 9999 SCT100 26/25 Q1009
8:00 pm
V
79 °F 6¼ mi+ - Var Var 3 kt METAR AYPY 011000Z VRB03KT 9999 SCT040 26/25 Q1009
7:00 pm
V
79 °F 6¼ mi+ - 140° 140° 5 kt METAR AYPY 010900Z 14005KT 9999 SCT035 26/24 Q1008
6:00 pm
V
84 °F 6¼ mi+ - 200° 200° 10 kt METAR AYPY 010800Z 20010KT 9999 FUHZ FEW020 SCT030 29/24 Q1007=
5:00 pm
V
84 °F 6¼ mi+ - 200° 200° 10 kt METAR AYPY 010700Z 20010KT 9999 FUHZ FEW020 SCT035 29/24 Q1007=
4:00 pm
V
86 °F 6¼ mi+ - 220° 220° 10 kt METAR AYPY 010600Z 22010KT 9999 FU HZ FEW020 SCT035 30/24 Q1006
3:00 pm
V
86 °F 6¼ mi+ 3.500 ft 220° 220° 10 kt METAR AYPY 010500Z 22010KT 9999 FUHZ FEW020 BKN035 30/24 Q1007
2:00 pm
V
88 °F 6¼ mi+ 3.500 ft 200° 200° 5 - 15 kt METAR AYPY 010400Z 20005G15KT 9999 FUHZ FEW020 BKN035 31/25 Q1007
1:00 pm
V
90 °F 6¼ mi+ 3.500 ft 200° 200° 10 kt METAR AYPY 010300Z 20010KT 9999 FUHZ BKN035 32/24 Q1007
12:00 pm
V
88 °F 6¼ mi+ - 230° 230° 10 kt METAR AYPY 010200Z 23010KT 9999 FUHZ SCT25 31/23 Q1008
11:00 am
V
86 °F 6¼ mi+ - 160° 160° 15 kt METAR AYPY 010100Z 16015KT 9999 FUHZ SCT25 30/25 Q1009
10:00 am
V
88 °F 6¼ mi+ - 160° 160° 5 kt METAR AYPY 010000Z 16005KT 9999 FUHZ SCT025 31/23 Q1009
9:00 am
V
82 °F 6¼ mi+ - Var Var 3 kt METAR AYPY 302300Z VRB03KT 9999 HZ FEW025 28/24 Q1009
8:00 am
V
79 °F 6¼ mi+ - Var Var 3 kt METAR AYPY 302200Z VRB03KT 9999 FUHZ FEW050 26/23 Q1009
7:00 am
V
73 °F 6¼ mi+ - Var Var 3 kt METAR AYPY 302100Z VRB03KT 9999 HZ FEW050 23/22 Q1009
6:00 am
V
73 °F 6¼ mi+ - Var Var 2 kt METAR AYPY 302000Z VRB02KT 9999 FEW050 23/23 Q1009
5:00 am
V
73 °F 6¼ mi+ - Var Var 2 kt METAR AYPY 301900Z VRB02KT 9999 FEW050 23/23 Q1008
4:00 am
V
75 °F 6¼ mi+ - Var Var 2 kt METAR AYPY 301800Z VRB02KT 9999 FEW030 24/23 Q1008
3:00 am
V
73 °F 6¼ mi+ - Var 000° 0 kt METAR AYPY 301700Z 00000KT 9999 FEW030 23/23 Q1008
2:00 am
V
75 °F 6¼ mi+ - Var Var 2 kt METAR AYPY 301600Z VRB02KT 9999 SKC 24/23 Q1008
1:00 am
V
75 °F 6¼ mi+ - Var Var 2 kt METAR AYPY 301500Z VRB02KT 9999 SKC 24/24 Q1009
Données plus anciennes

Télécharge notre application

Un accès facile à toute la météo aéronautique sur ton téléphone portable et ta tablette.
Avec de nombreuses fonctionnalités non disponibles sur le site Web, comme la prise en charge hors ligne et une liste personnelle d'aéroports.

Nous et des tiers suivons ton comportement sur Internet sur notre site Web à l'aide de cookies. Si tu continues, nous supposons que tu acceptes notre politique en matière de cookies. Apprendre plus